sensor_id;sensor_type;location;lat;lon;timestamp;P1;durP1;ratioP1;P2;durP2;ratioP2
78209;SDS011;67485;48.816;9.930;2023-06-22T00:01:58;9.02;;;5.90;;
78209;SDS011;67485;48.816;9.930;2023-06-22T00:04:24;9.37;;;6.17;;
78209;SDS011;67485;48.816;9.930;2023-06-22T00:06:50;9.50;;;5.78;;
78209;SDS011;67485;48.816;9.930;2023-06-22T00:09:16;8.55;;;5.20;;
78209;SDS011;67485;48.816;9.930;2023-06-22T00:11:42;8.83;;;5.40;;
78209;SDS011;67485;48.816;9.930;2023-06-22T00:14:07;7.47;;;4.85;;
78209;SDS011;67485;48.816;9.930;2023-06-22T00:16:33;11.43;;;6.57;;
78209;SDS011;67485;48.816;9.930;2023-06-22T00:18:59;10.52;;;5.93;;
78209;SDS011;67485;48.816;9.930;2023-06-22T00:21:29;10.68;;;6.22;;
78209;SDS011;67485;48.816;9.930;2023-06-22T00:23:55;8.87;;;5.87;;
78209;SDS011;67485;48.816;9.930;2023-06-22T00:26:22;8.02;;;5.88;;
78209;SDS011;67485;48.816;9.930;2023-06-22T00:28:48;7.07;;;5.30;;
78209;SDS011;67485;48.816;9.930;2023-06-22T00:31:14;9.85;;;6.15;;
78209;SDS011;67485;48.816;9.930;2023-06-22T00:33:40;9.83;;;6.20;;
78209;SDS011;67485;48.816;9.930;2023-06-22T00:36:05;12.45;;;6.38;;
78209;SDS011;67485;48.816;9.930;2023-06-22T00:38:33;12.55;;;6.10;;
78209;SDS011;67485;48.816;9.930;2023-06-22T00:41:00;8.07;;;5.70;;
78209;SDS011;67485;48.816;9.930;2023-06-22T00:43:26;11.70;;;5.95;;
78209;SDS011;67485;48.816;9.930;2023-06-22T00:45:52;12.90;;;5.60;;
78209;SDS011;67485;48.816;9.930;2023-06-22T00:48:18;10.30;;;5.72;;
78209;SDS011;67485;48.816;9.930;2023-06-22T00:50:46;8.13;;;5.65;;
78209;SDS011;67485;48.816;9.930;2023-06-22T00:53:14;9.48;;;6.00;;
78209;SDS011;67485;48.816;9.930;2023-06-22T00:55:43;10.10;;;6.03;;
78209;SDS011;67485;48.816;9.930;2023-06-22T00:58:11;8.77;;;6.28;;
78209;SDS011;67485;48.816;9.930;2023-06-22T01:00:38;10.38;;;5.68;;
78209;SDS011;67485;48.816;9.930;2023-06-22T01:03:04;10.38;;;5.95;;
78209;SDS011;67485;48.816;9.930;2023-06-22T01:05:34;11.73;;;6.60;;
78209;SDS011;67485;48.816;9.930;2023-06-22T01:10:46;11.05;;;7.03;;
78209;SDS011;67485;48.816;9.930;2023-06-22T01:16:23;13.25;;;6.60;;
78209;SDS011;67485;48.816;9.930;2023-06-22T01:18:52;12.77;;;6.30;;
78209;SDS011;67485;48.816;9.930;2023-06-22T01:21:21;10.55;;;6.05;;
78209;SDS011;67485;48.816;9.930;2023-06-22T01:24:14;12.55;;;6.45;;
78209;SDS011;67485;48.816;9.930;2023-06-22T01:29:40;8.30;;;5.55;;
78209;SDS011;67485;48.816;9.930;2023-06-22T01:32:08;10.53;;;6.33;;
78209;SDS011;67485;48.816;9.930;2023-06-22T01:34:36;12.48;;;6.38;;
78209;SDS011;67485;48.816;9.930;2023-06-22T01:37:05;8.45;;;6.18;;
78209;SDS011;67485;48.816;9.930;2023-06-22T01:39:32;11.35;;;6.50;;
78209;SDS011;67485;48.816;9.930;2023-06-22T01:41:59;9.77;;;6.18;;
78209;SDS011;67485;48.816;9.930;2023-06-22T01:44:25;9.80;;;6.40;;
78209;SDS011;67485;48.816;9.930;2023-06-22T01:46:52;9.70;;;6.03;;
78209;SDS011;67485;48.816;9.930;2023-06-22T01:49:18;9.60;;;5.78;;
78209;SDS011;67485;48.816;9.930;2023-06-22T01:51:44;10.02;;;5.13;;
78209;SDS011;67485;48.816;9.930;2023-06-22T01:54:10;14.80;;;6.57;;
78209;SDS011;67485;48.816;9.930;2023-06-22T01:56:35;10.63;;;6.30;;
78209;SDS011;67485;48.816;9.930;2023-06-22T01:59:04;10.38;;;6.13;;
78209;SDS011;67485;48.816;9.930;2023-06-22T02:01:50;12.00;;;6.57;;
78209;SDS011;67485;48.816;9.930;2023-06-22T02:04:27;9.33;;;6.13;;
78209;SDS011;67485;48.816;9.930;2023-06-22T02:06:58;10.43;;;6.45;;
78209;SDS011;67485;48.816;9.930;2023-06-22T02:09:26;10.40;;;5.95;;
78209;SDS011;67485;48.816;9.930;2023-06-22T02:11:55;9.63;;;5.50;;
78209;SDS011;67485;48.816;9.930;2023-06-22T02:14:22;9.73;;;5.88;;
78209;SDS011;67485;48.816;9.930;2023-06-22T02:16:50;10.27;;;5.30;;
78209;SDS011;67485;48.816;9.930;2023-06-22T02:19:16;9.98;;;5.70;;
78209;SDS011;67485;48.816;9.930;2023-06-22T02:21:44;10.40;;;5.55;;
78209;SDS011;67485;48.816;9.930;2023-06-22T02:24:12;10.50;;;5.60;;
78209;SDS011;67485;48.816;9.930;2023-06-22T02:26:37;10.43;;;5.43;;
78209;SDS011;67485;48.816;9.930;2023-06-22T02:29:07;10.35;;;5.43;;
78209;SDS011;67485;48.816;9.930;2023-06-22T02:31:33;7.50;;;5.35;;
78209;SDS011;67485;48.816;9.930;2023-06-22T02:33:59;10.23;;;5.23;;
78209;SDS011;67485;48.816;9.930;2023-06-22T02:36:25;9.70;;;5.97;;
78209;SDS011;67485;48.816;9.930;2023-06-22T02:38:52;12.50;;;6.72;;
78209;SDS011;67485;48.816;9.930;2023-06-22T02:41:19;11.13;;;6.47;;
78209;SDS011;67485;48.816;9.930;2023-06-22T02:43:45;10.53;;;7.10;;
78209;SDS011;67485;48.816;9.930;2023-06-22T02:46:11;11.63;;;6.47;;
78209;SDS011;67485;48.816;9.930;2023-06-22T02:48:39;12.43;;;6.95;;
78209;SDS011;67485;48.816;9.930;2023-06-22T02:51:05;12.35;;;6.97;;
78209;SDS011;67485;48.816;9.930;2023-06-22T02:53:32;12.43;;;7.10;;
78209;SDS011;67485;48.816;9.930;2023-06-22T02:55:58;12.33;;;6.80;;
78209;SDS011;67485;48.816;9.930;2023-06-22T02:58:24;13.57;;;7.72;;
78209;SDS011;67485;48.816;9.930;2023-06-22T03:00:50;12.55;;;6.97;;
78209;SDS011;67485;48.816;9.930;2023-06-22T03:03:19;15.23;;;8.13;;
78209;SDS011;67485;48.816;9.930;2023-06-22T03:05:45;11.80;;;7.70;;
78209;SDS011;67485;48.816;9.930;2023-06-22T03:08:11;11.80;;;8.60;;
78209;SDS011;67485;48.816;9.930;2023-06-22T03:10:36;11.50;;;7.88;;
78209;SDS011;67485;48.816;9.930;2023-06-22T03:13:02;12.60;;;8.30;;
78209;SDS011;67485;48.816;9.930;2023-06-22T03:15:29;15.85;;;8.43;;
78209;SDS011;67485;48.816;9.930;2023-06-22T03:17:56;13.98;;;8.88;;
78209;SDS011;67485;48.816;9.930;2023-06-22T03:20:22;13.43;;;8.80;;
78209;SDS011;67485;48.816;9.930;2023-06-22T03:22:48;14.07;;;8.97;;
78209;SDS011;67485;48.816;9.930;2023-06-22T03:25:14;16.50;;;9.18;;
78209;SDS011;67485;48.816;9.930;2023-06-22T03:27:42;13.18;;;8.75;;
78209;SDS011;67485;48.816;9.930;2023-06-22T03:30:13;14.03;;;8.80;;
78209;SDS011;67485;48.816;9.930;2023-06-22T03:32:39;13.70;;;9.18;;
78209;SDS011;67485;48.816;9.930;2023-06-22T03:35:05;13.40;;;8.73;;
78209;SDS011;67485;48.816;9.930;2023-06-22T03:37:34;17.08;;;8.85;;
78209;SDS011;67485;48.816;9.930;2023-06-22T03:40:00;17.93;;;9.80;;
78209;SDS011;67485;48.816;9.930;2023-06-22T03:42:28;15.30;;;9.30;;
78209;SDS011;67485;48.816;9.930;2023-06-22T03:44:54;16.30;;;10.05;;
78209;SDS011;67485;48.816;9.930;2023-06-22T03:47:20;14.87;;;9.87;;
78209;SDS011;67485;48.816;9.930;2023-06-22T03:49:46;18.17;;;10.65;;
78209;SDS011;67485;48.816;9.930;2023-06-22T03:52:11;15.50;;;10.23;;
78209;SDS011;67485;48.816;9.930;2023-06-22T03:54:37;17.90;;;10.23;;
78209;SDS011;67485;48.816;9.930;2023-06-22T03:57:03;16.27;;;10.33;;
78209;SDS011;67485;48.816;9.930;2023-06-22T03:59:29;13.05;;;9.90;;
78209;SDS011;67485;48.816;9.930;2023-06-22T04:01:54;19.63;;;10.83;;
78209;SDS011;67485;48.816;9.930;2023-06-22T04:04:20;17.23;;;10.80;;
78209;SDS011;67485;48.816;9.930;2023-06-22T04:06:46;20.17;;;10.50;;
78209;SDS011;67485;48.816;9.930;2023-06-22T04:09:11;15.53;;;10.03;;
78209;SDS011;67485;48.816;9.930;2023-06-22T04:11:37;15.80;;;8.70;;
78209;SDS011;67485;48.816;9.930;2023-06-22T04:14:03;13.47;;;8.73;;
78209;SDS011;67485;48.816;9.930;2023-06-22T04:16:28;17.70;;;9.35;;
78209;SDS011;67485;48.816;9.930;2023-06-22T04:18:54;15.40;;;9.67;;
78209;SDS011;67485;48.816;9.930;2023-06-22T04:21:20;13.97;;;8.83;;
78209;SDS011;67485;48.816;9.930;2023-06-22T04:23:46;17.42;;;9.30;;
78209;SDS011;67485;48.816;9.930;2023-06-22T04:26:12;18.70;;;9.48;;
78209;SDS011;67485;48.816;9.930;2023-06-22T04:28:39;12.43;;;8.63;;
78209;SDS011;67485;48.816;9.930;2023-06-22T04:31:05;14.97;;;8.70;;
78209;SDS011;67485;48.816;9.930;2023-06-22T04:33:31;15.20;;;9.20;;
78209;SDS011;67485;48.816;9.930;2023-06-22T04:35:58;13.13;;;8.63;;
78209;SDS011;67485;48.816;9.930;2023-06-22T04:38:26;17.13;;;8.63;;
78209;SDS011;67485;48.816;9.930;2023-06-22T04:40:52;12.85;;;8.18;;
78209;SDS011;67485;48.816;9.930;2023-06-22T04:43:18;14.15;;;8.50;;
78209;SDS011;67485;48.816;9.930;2023-06-22T04:45:45;15.45;;;8.43;;
78209;SDS011;67485;48.816;9.930;2023-06-22T04:48:10;14.50;;;8.90;;
78209;SDS011;67485;48.816;9.930;2023-06-22T04:50:41;13.95;;;8.75;;
78209;SDS011;67485;48.816;9.930;2023-06-22T04:53:07;15.25;;;8.55;;
78209;SDS011;67485;48.816;9.930;2023-06-22T04:55:38;16.15;;;8.68;;
78209;SDS011;67485;48.816;9.930;2023-06-22T04:58:06;12.10;;;8.27;;
78209;SDS011;67485;48.816;9.930;2023-06-22T05:00:33;13.67;;;8.00;;
78209;SDS011;67485;48.816;9.930;2023-06-22T05:03:01;12.25;;;7.95;;
78209;SDS011;67485;48.816;9.930;2023-06-22T05:05:28;13.55;;;7.97;;
78209;SDS011;67485;48.816;9.930;2023-06-22T05:07:56;11.38;;;7.47;;
78209;SDS011;67485;48.816;9.930;2023-06-22T05:10:25;14.77;;;6.72;;
78209;SDS011;67485;48.816;9.930;2023-06-22T05:12:50;9.60;;;5.97;;
78209;SDS011;67485;48.816;9.930;2023-06-22T05:15:16;8.20;;;6.13;;
78209;SDS011;67485;48.816;9.930;2023-06-22T05:17:44;11.70;;;5.80;;
78209;SDS011;67485;48.816;9.930;2023-06-22T05:20:10;10.67;;;5.40;;
78209;SDS011;67485;48.816;9.930;2023-06-22T05:22:37;10.80;;;6.22;;
78209;SDS011;67485;48.816;9.930;2023-06-22T05:25:05;8.40;;;6.22;;
78209;SDS011;67485;48.816;9.930;2023-06-22T05:27:33;8.10;;;5.55;;
78209;SDS011;67485;48.816;9.930;2023-06-22T05:29:59;11.67;;;5.50;;
78209;SDS011;67485;48.816;9.930;2023-06-22T05:32:24;8.17;;;5.30;;
78209;SDS011;67485;48.816;9.930;2023-06-22T05:34:50;10.90;;;6.00;;
78209;SDS011;67485;48.816;9.930;2023-06-22T05:37:15;12.00;;;5.87;;
78209;SDS011;67485;48.816;9.930;2023-06-22T05:39:41;10.75;;;5.22;;
78209;SDS011;67485;48.816;9.930;2023-06-22T05:42:07;11.97;;;4.83;;
78209;SDS011;67485;48.816;9.930;2023-06-22T05:44:33;11.05;;;5.10;;
78209;SDS011;67485;48.816;9.930;2023-06-22T05:46:59;12.60;;;5.05;;
78209;SDS011;67485;48.816;9.930;2023-06-22T05:49:25;9.25;;;4.65;;
78209;SDS011;67485;48.816;9.930;2023-06-22T05:51:55;11.17;;;4.60;;
78209;SDS011;67485;48.816;9.930;2023-06-22T05:54:22;8.02;;;4.43;;
78209;SDS011;67485;48.816;9.930;2023-06-22T05:56:47;8.88;;;4.20;;
78209;SDS011;67485;48.816;9.930;2023-06-22T05:59:13;7.67;;;4.07;;
78209;SDS011;67485;48.816;9.930;2023-06-22T06:01:39;9.63;;;3.65;;
78209;SDS011;67485;48.816;9.930;2023-06-22T06:04:05;7.33;;;4.03;;
78209;SDS011;67485;48.816;9.930;2023-06-22T06:06:33;8.00;;;3.65;;
78209;SDS011;67485;48.816;9.930;2023-06-22T06:09:00;6.43;;;3.47;;
78209;SDS011;67485;48.816;9.930;2023-06-22T06:11:26;6.68;;;3.63;;
78209;SDS011;67485;48.816;9.930;2023-06-22T06:13:51;13.53;;;4.33;;
78209;SDS011;67485;48.816;9.930;2023-06-22T06:16:17;10.07;;;3.77;;
78209;SDS011;67485;48.816;9.930;2023-06-22T06:18:43;6.63;;;3.50;;
78209;SDS011;67485;48.816;9.930;2023-06-22T06:21:09;6.60;;;3.53;;
78209;SDS011;67485;48.816;9.930;2023-06-22T06:23:34;10.57;;;3.65;;
78209;SDS011;67485;48.816;9.930;2023-06-22T06:26:00;5.83;;;3.50;;
78209;SDS011;67485;48.816;9.930;2023-06-22T06:28:26;11.60;;;3.80;;
78209;SDS011;67485;48.816;9.930;2023-06-22T06:30:52;8.88;;;3.90;;
78209;SDS011;67485;48.816;9.930;2023-06-22T06:33:18;7.17;;;3.20;;
78209;SDS011;67485;48.816;9.930;2023-06-22T06:35:46;6.45;;;3.47;;
78209;SDS011;67485;48.816;9.930;2023-06-22T06:38:11;6.43;;;3.33;;
78209;SDS011;67485;48.816;9.930;2023-06-22T06:40:37;5.17;;;3.40;;
78209;SDS011;67485;48.816;9.930;2023-06-22T06:43:03;6.22;;;3.60;;
78209;SDS011;67485;48.816;9.930;2023-06-22T06:45:28;7.03;;;3.57;;
78209;SDS011;67485;48.816;9.930;2023-06-22T06:47:56;7.03;;;3.13;;
78209;SDS011;67485;48.816;9.930;2023-06-22T06:50:22;5.75;;;3.05;;
78209;SDS011;67485;48.816;9.930;2023-06-22T06:52:48;9.83;;;3.43;;
78209;SDS011;67485;48.816;9.930;2023-06-22T06:55:15;7.30;;;3.50;;
78209;SDS011;67485;48.816;9.930;2023-06-22T06:57:41;8.93;;;3.30;;
78209;SDS011;67485;48.816;9.930;2023-06-22T07:00:08;5.93;;;2.90;;
78209;SDS011;67485;48.816;9.930;2023-06-22T07:02:40;8.40;;;3.78;;
78209;SDS011;67485;48.816;9.930;2023-06-22T07:05:11;7.55;;;3.35;;
78209;SDS011;67485;48.816;9.930;2023-06-22T07:07:37;13.23;;;3.55;;
78209;SDS011;67485;48.816;9.930;2023-06-22T07:10:04;7.17;;;2.93;;
78209;SDS011;67485;48.816;9.930;2023-06-22T07:12:30;6.82;;;3.40;;
78209;SDS011;67485;48.816;9.930;2023-06-22T07:15:03;8.10;;;3.22;;
78209;SDS011;67485;48.816;9.930;2023-06-22T07:17:30;7.20;;;3.47;;
78209;SDS011;67485;48.816;9.930;2023-06-22T07:19:56;10.57;;;4.57;;
78209;SDS011;67485;48.816;9.930;2023-06-22T07:22:22;10.07;;;3.22;;
78209;SDS011;67485;48.816;9.930;2023-06-22T07:24:48;9.43;;;3.08;;
78209;SDS011;67485;48.816;9.930;2023-06-22T07:27:14;10.17;;;3.10;;
78209;SDS011;67485;48.816;9.930;2023-06-22T07:29:44;6.57;;;2.83;;
78209;SDS011;67485;48.816;9.930;2023-06-22T07:32:09;8.20;;;3.30;;
78209;SDS011;67485;48.816;9.930;2023-06-22T07:34:35;8.60;;;3.30;;
78209;SDS011;67485;48.816;9.930;2023-06-22T07:37:01;9.67;;;2.90;;
78209;SDS011;67485;48.816;9.930;2023-06-22T07:39:26;12.03;;;2.97;;
78209;SDS011;67485;48.816;9.930;2023-06-22T07:41:53;8.75;;;3.75;;
78209;SDS011;67485;48.816;9.930;2023-06-22T07:44:19;10.13;;;3.22;;
78209;SDS011;67485;48.816;9.930;2023-06-22T07:46:44;7.27;;;3.20;;
78209;SDS011;67485;48.816;9.930;2023-06-22T07:49:10;10.48;;;3.40;;
78209;SDS011;67485;48.816;9.930;2023-06-22T07:51:36;11.63;;;3.47;;
78209;SDS011;67485;48.816;9.930;2023-06-22T07:54:01;7.90;;;3.37;;
78209;SDS011;67485;48.816;9.930;2023-06-22T07:56:27;9.07;;;3.60;;
78209;SDS011;67485;48.816;9.930;2023-06-22T07:58:53;13.10;;;3.17;;
78209;SDS011;67485;48.816;9.930;2023-06-22T08:01:18;8.73;;;3.53;;
78209;SDS011;67485;48.816;9.930;2023-06-22T08:03:48;7.85;;;3.60;;
78209;SDS011;67485;48.816;9.930;2023-06-22T08:06:14;8.80;;;3.67;;
78209;SDS011;67485;48.816;9.930;2023-06-22T08:08:39;11.00;;;3.60;;
78209;SDS011;67485;48.816;9.930;2023-06-22T08:11:05;8.75;;;3.40;;
78209;SDS011;67485;48.816;9.930;2023-06-22T08:13:31;11.17;;;3.77;;
78209;SDS011;67485;48.816;9.930;2023-06-22T08:15:57;8.00;;;3.47;;
78209;SDS011;67485;48.816;9.930;2023-06-22T08:18:23;9.85;;;3.97;;
78209;SDS011;67485;48.816;9.930;2023-06-22T08:20:48;8.57;;;3.90;;
78209;SDS011;67485;48.816;9.930;2023-06-22T08:23:15;11.77;;;3.65;;
78209;SDS011;67485;48.816;9.930;2023-06-22T08:25:41;9.30;;;3.15;;
78209;SDS011;67485;48.816;9.930;2023-06-22T08:28:06;10.30;;;4.10;;
78209;SDS011;67485;48.816;9.930;2023-06-22T08:30:32;12.93;;;3.92;;
78209;SDS011;67485;48.816;9.930;2023-06-22T08:32:58;12.13;;;4.10;;
78209;SDS011;67485;48.816;9.930;2023-06-22T08:35:24;11.30;;;4.10;;
78209;SDS011;67485;48.816;9.930;2023-06-22T08:37:50;13.38;;;4.38;;
78209;SDS011;67485;48.816;9.930;2023-06-22T08:40:20;11.60;;;4.05;;
78209;SDS011;67485;48.816;9.930;2023-06-22T08:42:46;10.30;;;4.38;;
78209;SDS011;67485;48.816;9.930;2023-06-22T08:45:13;12.45;;;4.53;;
78209;SDS011;67485;48.816;9.930;2023-06-22T08:47:40;10.00;;;4.20;;
78209;SDS011;67485;48.816;9.930;2023-06-22T08:50:06;12.90;;;4.13;;
78209;SDS011;67485;48.816;9.930;2023-06-22T08:52:34;11.95;;;4.60;;
78209;SDS011;67485;48.816;9.930;2023-06-22T08:55:00;13.85;;;4.32;;
78209;SDS011;67485;48.816;9.930;2023-06-22T08:57:26;14.40;;;4.67;;
78209;SDS011;67485;48.816;9.930;2023-06-22T08:59:52;13.13;;;5.20;;
78209;SDS011;67485;48.816;9.930;2023-06-22T09:02:18;12.98;;;5.15;;
78209;SDS011;67485;48.816;9.930;2023-06-22T09:04:47;11.77;;;4.50;;
78209;SDS011;67485;48.816;9.930;2023-06-22T09:07:14;42.33;;;5.63;;
78209;SDS011;67485;48.816;9.930;2023-06-22T09:09:40;10.67;;;4.67;;
78209;SDS011;67485;48.816;9.930;2023-06-22T09:12:05;15.93;;;4.60;;
78209;SDS011;67485;48.816;9.930;2023-06-22T09:14:31;13.77;;;4.97;;
78209;SDS011;67485;48.816;9.930;2023-06-22T09:16:57;13.60;;;4.83;;
78209;SDS011;67485;48.816;9.930;2023-06-22T09:19:23;11.95;;;4.80;;
78209;SDS011;67485;48.816;9.930;2023-06-22T09:21:49;12.40;;;5.10;;
78209;SDS011;67485;48.816;9.930;2023-06-22T09:24:15;11.65;;;5.05;;
78209;SDS011;67485;48.816;9.930;2023-06-22T09:26:41;12.00;;;4.60;;
78209;SDS011;67485;48.816;9.930;2023-06-22T09:29:06;10.17;;;5.00;;
78209;SDS011;67485;48.816;9.930;2023-06-22T09:31:32;10.82;;;5.43;;
78209;SDS011;67485;48.816;9.930;2023-06-22T09:33:58;12.30;;;5.00;;
78209;SDS011;67485;48.816;9.930;2023-06-22T09:36:24;11.77;;;4.47;;
78209;SDS011;67485;48.816;9.930;2023-06-22T09:38:49;13.33;;;4.67;;
78209;SDS011;67485;48.816;9.930;2023-06-22T09:41:20;11.38;;;4.50;;
78209;SDS011;67485;48.816;9.930;2023-06-22T09:43:46;10.20;;;4.18;;
78209;SDS011;67485;48.816;9.930;2023-06-22T09:46:14;11.18;;;4.95;;
78209;SDS011;67485;48.816;9.930;2023-06-22T09:48:41;10.73;;;5.10;;
78209;SDS011;67485;48.816;9.930;2023-06-22T09:51:06;15.10;;;4.95;;
78209;SDS011;67485;48.816;9.930;2023-06-22T09:53:32;14.00;;;5.60;;
78209;SDS011;67485;48.816;9.930;2023-06-22T09:56:00;13.23;;;5.20;;
78209;SDS011;67485;48.816;9.930;2023-06-22T09:58:27;13.35;;;5.43;;
78209;SDS011;67485;48.816;9.930;2023-06-22T10:00:53;10.88;;;4.38;;
78209;SDS011;67485;48.816;9.930;2023-06-22T10:03:19;12.88;;;5.68;;
78209;SDS011;67485;48.816;9.930;2023-06-22T10:05:45;12.23;;;5.00;;
78209;SDS011;67485;48.816;9.930;2023-06-22T10:08:11;14.90;;;5.72;;
78209;SDS011;67485;48.816;9.930;2023-06-22T10:10:37;16.43;;;5.43;;
78209;SDS011;67485;48.816;9.930;2023-06-22T10:13:07;13.17;;;5.60;;
78209;SDS011;67485;48.816;9.930;2023-06-22T10:15:35;10.95;;;4.72;;
78209;SDS011;67485;48.816;9.930;2023-06-22T10:18:01;13.90;;;5.35;;
78209;SDS011;67485;48.816;9.930;2023-06-22T10:20:27;12.00;;;5.53;;
78209;SDS011;67485;48.816;9.930;2023-06-22T10:22:53;11.98;;;5.85;;
78209;SDS011;67485;48.816;9.930;2023-06-22T10:25:19;12.70;;;5.25;;
78209;SDS011;67485;48.816;9.930;2023-06-22T10:27:45;18.00;;;5.60;;
78209;SDS011;67485;48.816;9.930;2023-06-22T10:30:11;18.47;;;6.47;;
78209;SDS011;67485;48.816;9.930;2023-06-22T10:32:38;12.98;;;5.75;;
78209;SDS011;67485;48.816;9.930;2023-06-22T10:35:04;15.18;;;5.68;;
78209;SDS011;67485;48.816;9.930;2023-06-22T10:37:31;16.27;;;5.50;;
78209;SDS011;67485;48.816;9.930;2023-06-22T10:39:57;14.15;;;6.03;;
78209;SDS011;67485;48.816;9.930;2023-06-22T10:42:23;15.55;;;6.00;;
78209;SDS011;67485;48.816;9.930;2023-06-22T10:44:48;11.70;;;5.72;;
78209;SDS011;67485;48.816;9.930;2023-06-22T10:47:14;14.00;;;5.80;;
78209;SDS011;67485;48.816;9.930;2023-06-22T10:49:40;11.18;;;6.00;;
78209;SDS011;67485;48.816;9.930;2023-06-22T10:52:06;12.07;;;6.20;;
78209;SDS011;67485;48.816;9.930;2023-06-22T10:54:33;13.30;;;5.60;;
78209;SDS011;67485;48.816;9.930;2023-06-22T10:56:59;13.38;;;5.85;;
78209;SDS011;67485;48.816;9.930;2023-06-22T10:59:25;13.63;;;5.55;;
78209;SDS011;67485;48.816;9.930;2023-06-22T11:01:52;10.38;;;5.35;;
78209;SDS011;67485;48.816;9.930;2023-06-22T11:04:18;17.03;;;6.17;;
78209;SDS011;67485;48.816;9.930;2023-06-22T11:06:44;12.38;;;5.60;;
78209;SDS011;67485;48.816;9.930;2023-06-22T11:09:10;13.90;;;6.43;;
78209;SDS011;67485;48.816;9.930;2023-06-22T11:11:35;11.50;;;5.40;;
78209;SDS011;67485;48.816;9.930;2023-06-22T11:14:02;12.73;;;5.37;;
78209;SDS011;67485;48.816;9.930;2023-06-22T11:16:28;18.33;;;6.33;;
78209;SDS011;67485;48.816;9.930;2023-06-22T11:18:53;15.93;;;5.50;;
78209;SDS011;67485;48.816;9.930;2023-06-22T11:21:19;13.70;;;5.35;;
78209;SDS011;67485;48.816;9.930;2023-06-22T11:23:45;14.03;;;5.57;;
78209;SDS011;67485;48.816;9.930;2023-06-22T11:26:11;9.90;;;4.85;;
78209;SDS011;67485;48.816;9.930;2023-06-22T11:28:36;14.43;;;5.77;;
78209;SDS011;67485;48.816;9.930;2023-06-22T11:31:02;15.25;;;6.50;;
78209;SDS011;67485;48.816;9.930;2023-06-22T11:33:28;15.73;;;5.72;;
78209;SDS011;67485;48.816;9.930;2023-06-22T11:35:54;12.37;;;5.13;;
78209;SDS011;67485;48.816;9.930;2023-06-22T11:38:21;10.95;;;5.35;;
78209;SDS011;67485;48.816;9.930;2023-06-22T11:40:47;11.57;;;6.00;;
78209;SDS011;67485;48.816;9.930;2023-06-22T11:43:13;13.88;;;6.13;;
78209;SDS011;67485;48.816;9.930;2023-06-22T11:45:40;15.10;;;6.15;;
78209;SDS011;67485;48.816;9.930;2023-06-22T11:48:05;14.27;;;5.60;;
78209;SDS011;67485;48.816;9.930;2023-06-22T11:50:31;13.35;;;6.38;;
78209;SDS011;67485;48.816;9.930;2023-06-22T11:53:01;17.52;;;5.80;;
78209;SDS011;67485;48.816;9.930;2023-06-22T11:55:28;12.73;;;5.83;;
78209;SDS011;67485;48.816;9.930;2023-06-22T11:57:55;13.45;;;5.90;;
78209;SDS011;67485;48.816;9.930;2023-06-22T12:00:28;16.27;;;6.07;;
78209;SDS011;67485;48.816;9.930;2023-06-22T12:02:55;15.07;;;6.20;;
78209;SDS011;67485;48.816;9.930;2023-06-22T12:05:21;15.23;;;6.10;;
78209;SDS011;67485;48.816;9.930;2023-06-22T12:07:48;14.77;;;6.05;;
78209;SDS011;67485;48.816;9.930;2023-06-22T12:10:14;14.70;;;6.05;;
78209;SDS011;67485;48.816;9.930;2023-06-22T12:12:40;12.95;;;5.55;;
78209;SDS011;67485;48.816;9.930;2023-06-22T12:15:06;17.38;;;6.45;;
78209;SDS011;67485;48.816;9.930;2023-06-22T12:17:33;15.60;;;5.60;;
78209;SDS011;67485;48.816;9.930;2023-06-22T12:19:59;15.52;;;5.85;;
78209;SDS011;67485;48.816;9.930;2023-06-22T12:22:25;15.27;;;5.75;;
78209;SDS011;67485;48.816;9.930;2023-06-22T12:24:51;18.97;;;6.00;;
78209;SDS011;67485;48.816;9.930;2023-06-22T12:27:16;17.45;;;6.18;;
78209;SDS011;67485;48.816;9.930;2023-06-22T12:29:45;10.98;;;5.05;;
78209;SDS011;67485;48.816;9.930;2023-06-22T12:32:11;17.53;;;5.90;;
78209;SDS011;67485;48.816;9.930;2023-06-22T12:34:39;9.98;;;5.25;;
78209;SDS011;67485;48.816;9.930;2023-06-22T12:37:05;14.35;;;6.15;;
78209;SDS011;67485;48.816;9.930;2023-06-22T12:39:31;14.30;;;6.10;;
78209;SDS011;67485;48.816;9.930;2023-06-22T12:41:57;13.37;;;6.10;;
78209;SDS011;67485;48.816;9.930;2023-06-22T12:44:23;14.98;;;6.25;;
78209;SDS011;67485;48.816;9.930;2023-06-22T12:46:49;15.60;;;5.90;;
78209;SDS011;67485;48.816;9.930;2023-06-22T12:49:15;14.73;;;5.07;;
78209;SDS011;67485;48.816;9.930;2023-06-22T12:51:41;14.80;;;6.28;;
78209;SDS011;67485;48.816;9.930;2023-06-22T12:54:08;15.48;;;6.13;;
78209;SDS011;67485;48.816;9.930;2023-06-22T12:56:34;14.33;;;5.03;;
78209;SDS011;67485;48.816;9.930;2023-06-22T12:58:59;14.88;;;5.95;;
78209;SDS011;67485;48.816;9.930;2023-06-22T13:01:27;13.70;;;5.55;;
78209;SDS011;67485;48.816;9.930;2023-06-22T13:03:53;13.80;;;5.50;;
78209;SDS011;67485;48.816;9.930;2023-06-22T13:06:19;11.30;;;5.55;;
78209;SDS011;67485;48.816;9.930;2023-06-22T13:08:45;12.48;;;5.53;;
78209;SDS011;67485;48.816;9.930;2023-06-22T13:11:11;14.77;;;6.33;;
78209;SDS011;67485;48.816;9.930;2023-06-22T13:13:36;15.13;;;5.40;;
78209;SDS011;67485;48.816;9.930;2023-06-22T13:16:02;13.60;;;5.27;;
78209;SDS011;67485;48.816;9.930;2023-06-22T13:18:28;22.30;;;6.20;;
78209;SDS011;67485;48.816;9.930;2023-06-22T13:20:54;17.55;;;6.15;;
78209;SDS011;67485;48.816;9.930;2023-06-22T13:23:23;16.17;;;5.60;;
78209;SDS011;67485;48.816;9.930;2023-06-22T13:25:48;17.95;;;6.25;;
78209;SDS011;67485;48.816;9.930;2023-06-22T13:28:14;15.45;;;5.97;;
78209;SDS011;67485;48.816;9.930;2023-06-22T13:30:41;21.20;;;5.53;;
78209;SDS011;67485;48.816;9.930;2023-06-22T13:33:07;19.67;;;6.13;;
78209;SDS011;67485;48.816;9.930;2023-06-22T13:35:34;15.35;;;6.05;;
78209;SDS011;67485;48.816;9.930;2023-06-22T13:38:00;16.50;;;5.93;;
78209;SDS011;67485;48.816;9.930;2023-06-22T13:40:26;11.13;;;5.70;;
78209;SDS011;67485;48.816;9.930;2023-06-22T13:42:52;11.13;;;5.30;;
78209;SDS011;67485;48.816;9.930;2023-06-22T13:45:17;12.45;;;5.18;;
78209;SDS011;67485;48.816;9.930;2023-06-22T13:47:45;14.68;;;6.07;;
78209;SDS011;67485;48.816;9.930;2023-06-22T13:50:11;15.00;;;6.27;;
78209;SDS011;67485;48.816;9.930;2023-06-22T13:52:38;15.30;;;5.95;;
78209;SDS011;67485;48.816;9.930;2023-06-22T13:55:04;16.08;;;6.35;;
78209;SDS011;67485;48.816;9.930;2023-06-22T13:57:32;18.60;;;6.05;;
78209;SDS011;67485;48.816;9.930;2023-06-22T13:59:59;14.70;;;5.93;;
78209;SDS011;67485;48.816;9.930;2023-06-22T14:02:25;17.60;;;6.10;;
78209;SDS011;67485;48.816;9.930;2023-06-22T14:04:51;14.18;;;6.03;;
78209;SDS011;67485;48.816;9.930;2023-06-22T14:07:17;19.98;;;5.78;;
78209;SDS011;67485;48.816;9.930;2023-06-22T14:09:44;14.45;;;6.63;;
78209;SDS011;67485;48.816;9.930;2023-06-22T14:12:10;15.97;;;6.17;;
78209;SDS011;67485;48.816;9.930;2023-06-22T14:14:36;14.63;;;5.35;;
78209;SDS011;67485;48.816;9.930;2023-06-22T14:17:03;12.98;;;6.03;;
78209;SDS011;67485;48.816;9.930;2023-06-22T14:19:29;14.70;;;5.53;;
78209;SDS011;67485;48.816;9.930;2023-06-22T14:21:55;16.33;;;6.18;;
78209;SDS011;67485;48.816;9.930;2023-06-22T14:24:22;12.82;;;5.50;;
78209;SDS011;67485;48.816;9.930;2023-06-22T14:26:48;11.73;;;5.33;;
78209;SDS011;67485;48.816;9.930;2023-06-22T14:29:14;17.13;;;5.60;;
78209;SDS011;67485;48.816;9.930;2023-06-22T14:31:40;14.77;;;5.43;;
78209;SDS011;67485;48.816;9.930;2023-06-22T14:34:05;13.70;;;5.33;;
78209;SDS011;67485;48.816;9.930;2023-06-22T14:36:31;13.45;;;5.05;;
78209;SDS011;67485;48.816;9.930;2023-06-22T14:38:57;12.97;;;5.23;;
78209;SDS011;67485;48.816;9.930;2023-06-22T14:41:24;16.13;;;5.40;;
78209;SDS011;67485;48.816;9.930;2023-06-22T14:43:50;14.55;;;5.65;;